sensor_id;sensor_type;location;lat;lon;timestamp;P1;P2;P0
63305;PMS5003;50735;52.060;1.248;2024-02-14T00:01:42;8;7;
63305;PMS5003;50735;52.060;1.248;2024-02-14T00:04:14;4;1;
63305;PMS5003;50735;52.060;1.248;2024-02-14T00:06:46;11;5;
63305;PMS5003;50735;52.060;1.248;2024-02-14T00:09:18;6;5;
63305;PMS5003;50735;52.060;1.248;2024-02-14T00:11:50;5;5;
63305;PMS5003;50735;52.060;1.248;2024-02-14T00:14:22;7;5;
63305;PMS5003;50735;52.060;1.248;2024-02-14T00:16:53;8;4;
63305;PMS5003;50735;52.060;1.248;2024-02-14T00:19:25;6;4;
63305;PMS5003;50735;52.060;1.248;2024-02-14T00:21:57;6;4;
63305;PMS5003;50735;52.060;1.248;2024-02-14T00:24:29;6;4;
63305;PMS5003;50735;52.060;1.248;2024-02-14T00:27:01;12;5;
63305;PMS5003;50735;52.060;1.248;2024-02-14T00:29:33;5;4;
63305;PMS5003;50735;52.060;1.248;2024-02-14T00:32:05;4;4;
63305;PMS5003;50735;52.060;1.248;2024-02-14T00:34:37;7;2;
63305;PMS5003;50735;52.060;1.248;2024-02-14T00:37:09;8;4;
63305;PMS5003;50735;52.060;1.248;2024-02-14T00:39:41;3;3;
63305;PMS5003;50735;52.060;1.248;2024-02-14T00:42:13;8;6;
63305;PMS5003;50735;52.060;1.248;2024-02-14T00:44:44;4;3;
63305;PMS5003;50735;52.060;1.248;2024-02-14T00:47:16;6;4;
63305;PMS5003;50735;52.060;1.248;2024-02-14T00:49:48;4;4;
63305;PMS5003;50735;52.060;1.248;2024-02-14T00:52:20;6;3;
63305;PMS5003;50735;52.060;1.248;2024-02-14T00:54:51;7;5;
63305;PMS5003;50735;52.060;1.248;2024-02-14T00:57:23;5;3;
63305;PMS5003;50735;52.060;1.248;2024-02-14T00:59:55;5;4;
63305;PMS5003;50735;52.060;1.248;2024-02-14T01:02:27;5;5;
63305;PMS5003;50735;52.060;1.248;2024-02-14T01:04:59;6;4;
63305;PMS5003;50735;52.060;1.248;2024-02-14T01:07:31;7;4;
63305;PMS5003;50735;52.060;1.248;2024-02-14T01:10:02;6;5;
63305;PMS5003;50735;52.060;1.248;2024-02-14T01:12:35;7;4;
63305;PMS5003;50735;52.060;1.248;2024-02-14T01:15:06;5;2;
63305;PMS5003;50735;52.060;1.248;2024-02-14T01:17:39;8;5;
63305;PMS5003;50735;52.060;1.248;2024-02-14T01:20:11;6;5;
63305;PMS5003;50735;52.060;1.248;2024-02-14T01:22:43;6;6;
63305;PMS5003;50735;52.060;1.248;2024-02-14T01:25:14;3;2;
63305;PMS5003;50735;52.060;1.248;2024-02-14T01:27:47;10;5;
63305;PMS5003;50735;52.060;1.248;2024-02-14T01:30:19;4;3;
63305;PMS5003;50735;52.060;1.248;2024-02-14T01:32:51;4;4;
63305;PMS5003;50735;52.060;1.248;2024-02-14T01:35:23;9;3;
63305;PMS5003;50735;52.060;1.248;2024-02-14T01:37:55;9;3;
63305;PMS5003;50735;52.060;1.248;2024-02-14T01:40:27;9;4;
63305;PMS5003;50735;52.060;1.248;2024-02-14T01:42:59;10;3;
63305;PMS5003;50735;52.060;1.248;2024-02-14T01:45:30;13;3;
63305;PMS5003;50735;52.060;1.248;2024-02-14T01:48:02;11;5;
63305;PMS5003;50735;52.060;1.248;2024-02-14T01:50:34;6;3;
63305;PMS5003;50735;52.060;1.248;2024-02-14T01:53:07;8;4;
63305;PMS5003;50735;52.060;1.248;2024-02-14T01:55:39;11;8;
63305;PMS5003;50735;52.060;1.248;2024-02-14T01:58:12;6;4;
63305;PMS5003;50735;52.060;1.248;2024-02-14T02:00:45;6;2;
63305;PMS5003;50735;52.060;1.248;2024-02-14T02:03:17;14;4;
63305;PMS5003;50735;52.060;1.248;2024-02-14T02:05:49;8;5;
63305;PMS5003;50735;52.060;1.248;2024-02-14T02:08:22;13;5;
63305;PMS5003;50735;52.060;1.248;2024-02-14T02:10:54;7;4;
63305;PMS5003;50735;52.060;1.248;2024-02-14T02:13:25;8;5;
63305;PMS5003;50735;52.060;1.248;2024-02-14T02:15:57;9;6;
63305;PMS5003;50735;52.060;1.248;2024-02-14T02:18:29;17;8;
63305;PMS5003;50735;52.060;1.248;2024-02-14T02:21:01;14;7;
63305;PMS5003;50735;52.060;1.248;2024-02-14T02:23:33;10;6;
63305;PMS5003;50735;52.060;1.248;2024-02-14T02:26:05;7;6;
63305;PMS5003;50735;52.060;1.248;2024-02-14T02:28:37;18;4;
63305;PMS5003;50735;52.060;1.248;2024-02-14T02:31:10;21;7;
63305;PMS5003;50735;52.060;1.248;2024-02-14T02:33:42;6;4;
63305;PMS5003;50735;52.060;1.248;2024-02-14T02:36:13;18;6;
63305;PMS5003;50735;52.060;1.248;2024-02-14T02:38:45;7;4;
63305;PMS5003;50735;52.060;1.248;2024-02-14T02:41:17;12;6;
63305;PMS5003;50735;52.060;1.248;2024-02-14T02:43:49;10;6;
63305;PMS5003;50735;52.060;1.248;2024-02-14T02:46:21;14;6;
63305;PMS5003;50735;52.060;1.248;2024-02-14T02:48:52;22;7;
63305;PMS5003;50735;52.060;1.248;2024-02-14T02:51:24;11;7;
63305;PMS5003;50735;52.060;1.248;2024-02-14T02:53:56;10;7;
63305;PMS5003;50735;52.060;1.248;2024-02-14T02:56:28;12;6;
63305;PMS5003;50735;52.060;1.248;2024-02-14T02:59:00;9;6;
63305;PMS5003;50735;52.060;1.248;2024-02-14T03:01:34;8;6;
63305;PMS5003;50735;52.060;1.248;2024-02-14T03:04:07;15;8;
63305;PMS5003;50735;52.060;1.248;2024-02-14T03:06:39;11;6;
63305;PMS5003;50735;52.060;1.248;2024-02-14T03:09:10;10;7;
63305;PMS5003;50735;52.060;1.248;2024-02-14T03:11:42;8;5;
63305;PMS5003;50735;52.060;1.248;2024-02-14T03:14:16;8;4;
63305;PMS5003;50735;52.060;1.248;2024-02-14T03:16:48;27;10;
63305;PMS5003;50735;52.060;1.248;2024-02-14T03:19:20;15;8;
63305;PMS5003;50735;52.060;1.248;2024-02-14T03:21:52;25;7;
63305;PMS5003;50735;52.060;1.248;2024-02-14T03:24:24;10;7;
63305;PMS5003;50735;52.060;1.248;2024-02-14T03:26:56;18;8;
63305;PMS5003;50735;52.060;1.248;2024-02-14T03:29:27;14;9;
63305;PMS5003;50735;52.060;1.248;2024-02-14T03:31:59;15;8;
63305;PMS5003;50735;52.060;1.248;2024-02-14T03:34:31;6;5;
63305;PMS5003;50735;52.060;1.248;2024-02-14T03:37:03;8;8;
63305;PMS5003;50735;52.060;1.248;2024-02-14T03:39:36;12;6;
63305;PMS5003;50735;52.060;1.248;2024-02-14T03:42:07;12;7;
63305;PMS5003;50735;52.060;1.248;2024-02-14T03:44:39;24;7;
63305;PMS5003;50735;52.060;1.248;2024-02-14T03:47:11;10;7;
63305;PMS5003;50735;52.060;1.248;2024-02-14T03:49:43;12;6;
63305;PMS5003;50735;52.060;1.248;2024-02-14T03:52:15;10;6;
63305;PMS5003;50735;52.060;1.248;2024-02-14T03:54:46;6;4;
63305;PMS5003;50735;52.060;1.248;2024-02-14T03:57:18;10;7;
63305;PMS5003;50735;52.060;1.248;2024-02-14T03:59:50;13;4;
63305;PMS5003;50735;52.060;1.248;2024-02-14T04:02:22;10;6;
63305;PMS5003;50735;52.060;1.248;2024-02-14T04:04:54;6;6;
63305;PMS5003;50735;52.060;1.248;2024-02-14T04:07:25;12;6;
63305;PMS5003;50735;52.060;1.248;2024-02-14T04:09:57;10;5;
63305;PMS5003;50735;52.060;1.248;2024-02-14T04:12:29;4;4;
63305;PMS5003;50735;52.060;1.248;2024-02-14T04:15:01;8;5;
63305;PMS5003;50735;52.060;1.248;2024-02-14T04:17:33;9;4;
63305;PMS5003;50735;52.060;1.248;2024-02-14T04:20:05;5;4;
63305;PMS5003;50735;52.060;1.248;2024-02-14T04:22:38;10;6;
63305;PMS5003;50735;52.060;1.248;2024-02-14T04:25:10;6;5;
63305;PMS5003;50735;52.060;1.248;2024-02-14T04:27:41;8;6;
63305;PMS5003;50735;52.060;1.248;2024-02-14T04:30:13;7;5;
63305;PMS5003;50735;52.060;1.248;2024-02-14T04:32:45;8;6;
63305;PMS5003;50735;52.060;1.248;2024-02-14T04:35:17;13;3;
63305;PMS5003;50735;52.060;1.248;2024-02-14T04:37:51;16;6;
63305;PMS5003;50735;52.060;1.248;2024-02-14T04:40:22;8;5;
63305;PMS5003;50735;52.060;1.248;2024-02-14T04:42:54;5;5;
63305;PMS5003;50735;52.060;1.248;2024-02-14T04:45:26;8;6;
63305;PMS5003;50735;52.060;1.248;2024-02-14T04:47:58;9;3;
63305;PMS5003;50735;52.060;1.248;2024-02-14T04:50:30;7;5;
63305;PMS5003;50735;52.060;1.248;2024-02-14T04:53:02;6;4;
63305;PMS5003;50735;52.060;1.248;2024-02-14T04:55:34;9;5;
63305;PMS5003;50735;52.060;1.248;2024-02-14T04:58:05;6;5;
63305;PMS5003;50735;52.060;1.248;2024-02-14T05:00:37;7;6;
63305;PMS5003;50735;52.060;1.248;2024-02-14T05:03:09;7;4;
63305;PMS5003;50735;52.060;1.248;2024-02-14T05:05:41;7;4;
63305;PMS5003;50735;52.060;1.248;2024-02-14T05:08:12;6;4;
63305;PMS5003;50735;52.060;1.248;2024-02-14T05:10:44;5;4;
63305;PMS5003;50735;52.060;1.248;2024-02-14T05:13:16;5;2;
63305;PMS5003;50735;52.060;1.248;2024-02-14T05:15:48;5;4;
63305;PMS5003;50735;52.060;1.248;2024-02-14T05:18:20;7;4;
63305;PMS5003;50735;52.060;1.248;2024-02-14T05:20:51;4;3;
63305;PMS5003;50735;52.060;1.248;2024-02-14T05:23:23;5;3;
63305;PMS5003;50735;52.060;1.248;2024-02-14T05:25:56;11;3;
63305;PMS5003;50735;52.060;1.248;2024-02-14T05:28:27;6;3;
63305;PMS5003;50735;52.060;1.248;2024-02-14T05:30:59;5;4;
63305;PMS5003;50735;52.060;1.248;2024-02-14T05:33:32;5;5;
63305;PMS5003;50735;52.060;1.248;2024-02-14T05:36:03;4;3;
63305;PMS5003;50735;52.060;1.248;2024-02-14T05:38:36;6;3;
63305;PMS5003;50735;52.060;1.248;2024-02-14T05:41:08;5;4;
63305;PMS5003;50735;52.060;1.248;2024-02-14T05:43:39;3;2;
63305;PMS5003;50735;52.060;1.248;2024-02-14T05:46:11;4;3;
63305;PMS5003;50735;52.060;1.248;2024-02-14T05:48:43;5;2;
63305;PMS5003;50735;52.060;1.248;2024-02-14T05:51:14;6;3;
63305;PMS5003;50735;52.060;1.248;2024-02-14T05:53:46;2;2;
63305;PMS5003;50735;52.060;1.248;2024-02-14T05:56:17;3;3;
63305;PMS5003;50735;52.060;1.248;2024-02-14T05:58:49;4;3;
63305;PMS5003;50735;52.060;1.248;2024-02-14T06:01:21;9;3;
63305;PMS5003;50735;52.060;1.248;2024-02-14T06:03:53;3;3;
63305;PMS5003;50735;52.060;1.248;2024-02-14T06:06:24;6;5;
63305;PMS5003;50735;52.060;1.248;2024-02-14T06:08:56;3;2;
63305;PMS5003;50735;52.060;1.248;2024-02-14T06:11:28;5;2;
63305;PMS5003;50735;52.060;1.248;2024-02-14T06:14:00;4;2;
63305;PMS5003;50735;52.060;1.248;2024-02-14T06:16:32;3;3;
63305;PMS5003;50735;52.060;1.248;2024-02-14T06:19:03;2;2;
63305;PMS5003;50735;52.060;1.248;2024-02-14T06:21:36;4;2;
63305;PMS5003;50735;52.060;1.248;2024-02-14T06:24:08;7;4;
63305;PMS5003;50735;52.060;1.248;2024-02-14T06:26:40;3;3;
63305;PMS5003;50735;52.060;1.248;2024-02-14T06:29:11;3;3;
63305;PMS5003;50735;52.060;1.248;2024-02-14T06:31:43;3;2;
63305;PMS5003;50735;52.060;1.248;2024-02-14T06:34:15;2;2;
63305;PMS5003;50735;52.060;1.248;2024-02-14T06:36:47;2;2;
63305;PMS5003;50735;52.060;1.248;2024-02-14T06:39:18;2;1;
63305;PMS5003;50735;52.060;1.248;2024-02-14T06:41:50;6;1;
63305;PMS5003;50735;52.060;1.248;2024-02-14T06:44:22;4;3;
63305;PMS5003;50735;52.060;1.248;2024-02-14T06:46:54;4;2;
63305;PMS5003;50735;52.060;1.248;2024-02-14T06:49:26;2;1;
63305;PMS5003;50735;52.060;1.248;2024-02-14T06:51:58;0;0;
63305;PMS5003;50735;52.060;1.248;2024-02-14T06:54:29;4;3;
63305;PMS5003;50735;52.060;1.248;2024-02-14T06:57:01;3;1;
63305;PMS5003;50735;52.060;1.248;2024-02-14T06:59:33;3;2;
63305;PMS5003;50735;52.060;1.248;2024-02-14T07:02:05;2;1;
63305;PMS5003;50735;52.060;1.248;2024-02-14T07:04:37;5;3;
63305;PMS5003;50735;52.060;1.248;2024-02-14T07:07:08;3;2;
63305;PMS5003;50735;52.060;1.248;2024-02-14T07:09:40;3;3;
63305;PMS5003;50735;52.060;1.248;2024-02-14T07:12:12;2;2;
63305;PMS5003;50735;52.060;1.248;2024-02-14T07:14:44;2;2;
63305;PMS5003;50735;52.060;1.248;2024-02-14T07:17:16;2;2;
63305;PMS5003;50735;52.060;1.248;2024-02-14T07:19:47;5;3;
63305;PMS5003;50735;52.060;1.248;2024-02-14T07:22:19;3;3;
63305;PMS5003;50735;52.060;1.248;2024-02-14T07:24:51;2;2;
63305;PMS5003;50735;52.060;1.248;2024-02-14T07:27:23;5;3;
63305;PMS5003;50735;52.060;1.248;2024-02-14T07:29:54;1;1;
63305;PMS5003;50735;52.060;1.248;2024-02-14T07:32:26;2;2;
63305;PMS5003;50735;52.060;1.248;2024-02-14T07:34:58;4;3;
63305;PMS5003;50735;52.060;1.248;2024-02-14T07:37:30;2;2;
63305;PMS5003;50735;52.060;1.248;2024-02-14T07:40:02;3;3;
63305;PMS5003;50735;52.060;1.248;2024-02-14T07:42:34;3;3;
63305;PMS5003;50735;52.060;1.248;2024-02-14T07:45:06;4;3;
63305;PMS5003;50735;52.060;1.248;2024-02-14T07:47:39;2;2;
63305;PMS5003;50735;52.060;1.248;2024-02-14T07:50:11;3;2;
63305;PMS5003;50735;52.060;1.248;2024-02-14T07:52:42;4;2;
63305;PMS5003;50735;52.060;1.248;2024-02-14T07:55:14;1;1;
63305;PMS5003;50735;52.060;1.248;2024-02-14T07:57:46;2;2;
63305;PMS5003;50735;52.060;1.248;2024-02-14T08:00:18;0;0;
63305;PMS5003;50735;52.060;1.248;2024-02-14T08:02:51;3;2;
63305;PMS5003;50735;52.060;1.248;2024-02-14T08:05:22;1;1;
63305;PMS5003;50735;52.060;1.248;2024-02-14T08:07:54;4;2;
63305;PMS5003;50735;52.060;1.248;2024-02-14T08:10:26;0;0;
63305;PMS5003;50735;52.060;1.248;2024-02-14T08:12:57;3;3;
63305;PMS5003;50735;52.060;1.248;2024-02-14T08:15:29;1;1;
63305;PMS5003;50735;52.060;1.248;2024-02-14T08:18:01;2;2;
63305;PMS5003;50735;52.060;1.248;2024-02-14T08:20:33;6;3;
63305;PMS5003;50735;52.060;1.248;2024-02-14T08:23:06;3;1;
63305;PMS5003;50735;52.060;1.248;2024-02-14T08:25:37;4;2;
63305;PMS5003;50735;52.060;1.248;2024-02-14T08:28:09;3;3;
63305;PMS5003;50735;52.060;1.248;2024-02-14T08:30:41;5;2;
63305;PMS5003;50735;52.060;1.248;2024-02-14T08:33:13;4;3;
63305;PMS5003;50735;52.060;1.248;2024-02-14T08:35:45;3;3;
63305;PMS5003;50735;52.060;1.248;2024-02-14T08:38:17;1;1;
63305;PMS5003;50735;52.060;1.248;2024-02-14T08:40:49;3;3;
63305;PMS5003;50735;52.060;1.248;2024-02-14T08:43:21;4;2;
63305;PMS5003;50735;52.060;1.248;2024-02-14T08:45:54;2;2;
63305;PMS5003;50735;52.060;1.248;2024-02-14T08:48:26;4;3;
63305;PMS5003;50735;52.060;1.248;2024-02-14T08:50:58;5;3;
63305;PMS5003;50735;52.060;1.248;2024-02-14T08:53:30;6;3;
63305;PMS5003;50735;52.060;1.248;2024-02-14T08:56:01;6;5;
63305;PMS5003;50735;52.060;1.248;2024-02-14T08:58:33;6;6;
63305;PMS5003;50735;52.060;1.248;2024-02-14T09:01:05;5;3;
63305;PMS5003;50735;52.060;1.248;2024-02-14T09:03:37;6;4;
63305;PMS5003;50735;52.060;1.248;2024-02-14T09:06:09;6;4;
63305;PMS5003;50735;52.060;1.248;2024-02-14T09:08:41;6;5;
63305;PMS5003;50735;52.060;1.248;2024-02-14T09:11:15;4;4;
63305;PMS5003;50735;52.060;1.248;2024-02-14T09:13:47;4;4;
63305;PMS5003;50735;52.060;1.248;2024-02-14T09:16:19;5;5;
63305;PMS5003;50735;52.060;1.248;2024-02-14T09:18:50;6;3;
63305;PMS5003;50735;52.060;1.248;2024-02-14T09:21:23;6;4;
63305;PMS5003;50735;52.060;1.248;2024-02-14T09:23:55;7;4;
63305;PMS5003;50735;52.060;1.248;2024-02-14T09:26:28;4;4;
63305;PMS5003;50735;52.060;1.248;2024-02-14T09:29:00;4;4;
63305;PMS5003;50735;52.060;1.248;2024-02-14T09:31:32;5;2;
63305;PMS5003;50735;52.060;1.248;2024-02-14T09:34:04;3;3;
63305;PMS5003;50735;52.060;1.248;2024-02-14T09:36:35;7;3;
63305;PMS5003;50735;52.060;1.248;2024-02-14T09:39:07;3;3;
63305;PMS5003;50735;52.060;1.248;2024-02-14T09:41:40;4;4;
63305;PMS5003;50735;52.060;1.248;2024-02-14T09:44:13;5;5;
63305;PMS5003;50735;52.060;1.248;2024-02-14T09:46:45;10;8;
63305;PMS5003;50735;52.060;1.248;2024-02-14T09:49:18;16;14;
63305;PMS5003;50735;52.060;1.248;2024-02-14T09:51:51;11;11;
63305;PMS5003;50735;52.060;1.248;2024-02-14T09:54:24;22;19;
63305;PMS5003;50735;52.060;1.248;2024-02-14T09:56:57;18;18;
63305;PMS5003;50735;52.060;1.248;2024-02-14T09:59:30;17;17;
63305;PMS5003;50735;52.060;1.248;2024-02-14T10:02:03;6;6;
63305;PMS5003;50735;52.060;1.248;2024-02-14T10:04:35;5;4;
63305;PMS5003;50735;52.060;1.248;2024-02-14T10:07:07;2;2;
63305;PMS5003;50735;52.060;1.248;2024-02-14T10:09:40;3;3;
63305;PMS5003;50735;52.060;1.248;2024-02-14T10:12:12;6;5;
63305;PMS5003;50735;52.060;1.248;2024-02-14T10:14:44;2;2;
63305;PMS5003;50735;52.060;1.248;2024-02-14T10:17:17;4;2;
63305;PMS5003;50735;52.060;1.248;2024-02-14T10:19:57;4;4;
63305;PMS5003;50735;52.060;1.248;2024-02-14T10:22:32;4;3;
63305;PMS5003;50735;52.060;1.248;2024-02-14T10:25:05;4;4;
63305;PMS5003;50735;52.060;1.248;2024-02-14T10:27:38;8;5;
63305;PMS5003;50735;52.060;1.248;2024-02-14T10:30:11;10;7;
63305;PMS5003;50735;52.060;1.248;2024-02-14T10:32:44;7;6;
63305;PMS5003;50735;52.060;1.248;2024-02-14T10:35:16;9;7;
63305;PMS5003;50735;52.060;1.248;2024-02-14T10:37:48;6;6;
63305;PMS5003;50735;52.060;1.248;2024-02-14T10:40:20;6;6;
63305;PMS5003;50735;52.060;1.248;2024-02-14T10:42:52;11;11;
63305;PMS5003;50735;52.060;1.248;2024-02-14T10:45:24;8;8;
63305;PMS5003;50735;52.060;1.248;2024-02-14T10:47:57;9;8;
63305;PMS5003;50735;52.060;1.248;2024-02-14T10:50:32;6;6;
63305;PMS5003;50735;52.060;1.248;2024-02-14T10:53:05;8;6;
63305;PMS5003;50735;52.060;1.248;2024-02-14T10:55:43;10;9;
63305;PMS5003;50735;52.060;1.248;2024-02-14T10:58:19;10;9;
63305;PMS5003;50735;52.060;1.248;2024-02-14T11:00:51;7;7;
63305;PMS5003;50735;52.060;1.248;2024-02-14T11:03:23;6;6;
63305;PMS5003;50735;52.060;1.248;2024-02-14T11:06:00;7;7;
63305;PMS5003;50735;52.060;1.248;2024-02-14T11:08:33;5;5;
63305;PMS5003;50735;52.060;1.248;2024-02-14T11:11:05;3;3;
63305;PMS5003;50735;52.060;1.248;2024-02-14T11:13:37;7;7;
63305;PMS5003;50735;52.060;1.248;2024-02-14T11:16:12;7;6;
63305;PMS5003;50735;52.060;1.248;2024-02-14T11:18:44;3;3;
63305;PMS5003;50735;52.060;1.248;2024-02-14T11:21:16;3;3;
63305;PMS5003;50735;52.060;1.248;2024-02-14T11:23:55;2;2;
63305;PMS5003;50735;52.060;1.248;2024-02-14T11:26:27;3;3;
63305;PMS5003;50735;52.060;1.248;2024-02-14T11:29:13;6;4;
63305;PMS5003;50735;52.060;1.248;2024-02-14T11:31:45;3;3;
63305;PMS5003;50735;52.060;1.248;2024-02-14T11:34:17;2;2;
63305;PMS5003;50735;52.060;1.248;2024-02-14T11:36:49;4;3;
63305;PMS5003;50735;52.060;1.248;2024-02-14T11:39:23;4;4;
63305;PMS5003;50735;52.060;1.248;2024-02-14T11:41:56;4;2;
63305;PMS5003;50735;52.060;1.248;2024-02-14T11:44:28;5;5;
63305;PMS5003;50735;52.060;1.248;2024-02-14T11:47:00;6;5;
63305;PMS5003;50735;52.060;1.248;2024-02-14T11:49:32;2;2;
63305;PMS5003;50735;52.060;1.248;2024-02-14T11:52:04;7;7;
63305;PMS5003;50735;52.060;1.248;2024-02-14T11:54:36;4;4;
63305;PMS5003;50735;52.060;1.248;2024-02-14T11:57:08;6;6;
63305;PMS5003;50735;52.060;1.248;2024-02-14T11:59:40;3;3;
63305;PMS5003;50735;52.060;1.248;2024-02-14T12:02:12;3;3;
63305;PMS5003;50735;52.060;1.248;2024-02-14T12:04:44;1;1;
63305;PMS5003;50735;52.060;1.248;2024-02-14T12:07:16;2;2;
63305;PMS5003;50735;52.060;1.248;2024-02-14T12:09:49;3;3;
63305;PMS5003;50735;52.060;1.248;2024-02-14T12:12:20;4;4;
63305;PMS5003;50735;52.060;1.248;2024-02-14T12:14:52;2;2;
63305;PMS5003;50735;52.060;1.248;2024-02-14T12:17:24;6;6;
63305;PMS5003;50735;52.060;1.248;2024-02-14T12:20:04;5;5;
63305;PMS5003;50735;52.060;1.248;2024-02-14T12:22:37;5;5;
63305;PMS5003;50735;52.060;1.248;2024-02-14T12:25:09;9;7;
63305;PMS5003;50735;52.060;1.248;2024-02-14T12:27:41;10;10;
63305;PMS5003;50735;52.060;1.248;2024-02-14T12:30:14;51;43;
63305;PMS5003;50735;52.060;1.248;2024-02-14T12:32:46;152;134;
63305;PMS5003;50735;52.060;1.248;2024-02-14T12:35:18;226;208;
63305;PMS5003;50735;52.060;1.248;2024-02-14T12:37:50;120;108;
63305;PMS5003;50735;52.060;1.248;2024-02-14T12:40:23;101;86;
63305;PMS5003;50735;52.060;1.248;2024-02-14T12:42:55;64;61;
63305;PMS5003;50735;52.060;1.248;2024-02-14T12:45:27;29;29;
63305;PMS5003;50735;52.060;1.248;2024-02-14T12:47:59;21;21;
63305;PMS5003;50735;52.060;1.248;2024-02-14T12:50:30;20;20;
63305;PMS5003;50735;52.060;1.248;2024-02-14T12:53:03;18;17;
63305;PMS5003;50735;52.060;1.248;2024-02-14T12:55:35;12;12;
63305;PMS5003;50735;52.060;1.248;2024-02-14T12:58:07;10;10;
63305;PMS5003;50735;52.060;1.248;2024-02-14T13:00:39;9;9;
63305;PMS5003;50735;52.060;1.248;2024-02-14T13:03:11;7;7;
63305;PMS5003;50735;52.060;1.248;2024-02-14T13:05:43;6;6;
63305;PMS5003;50735;52.060;1.248;2024-02-14T13:08:14;5;5;
63305;PMS5003;50735;52.060;1.248;2024-02-14T13:10:46;6;6;
63305;PMS5003;50735;52.060;1.248;2024-02-14T13:13:18;4;4;
63305;PMS5003;50735;52.060;1.248;2024-02-14T13:15:50;6;4;
63305;PMS5003;50735;52.060;1.248;2024-02-14T13:18:21;3;3;
63305;PMS5003;50735;52.060;1.248;2024-02-14T13:20:53;2;2;
63305;PMS5003;50735;52.060;1.248;2024-02-14T13:23:25;3;3;
63305;PMS5003;50735;52.060;1.248;2024-02-14T13:25:57;6;4;
63305;PMS5003;50735;52.060;1.248;2024-02-14T13:28:29;3;3;
63305;PMS5003;50735;52.060;1.248;2024-02-14T13:31:00;2;2;
63305;PMS5003;50735;52.060;1.248;2024-02-14T13:33:32;2;2;
63305;PMS5003;50735;52.060;1.248;2024-02-14T13:36:04;3;3;
63305;PMS5003;50735;52.060;1.248;2024-02-14T13:38:37;4;4;
63305;PMS5003;50735;52.060;1.248;2024-02-14T13:41:09;7;7;
63305;PMS5003;50735;52.060;1.248;2024-02-14T13:43:41;8;7;
63305;PMS5003;50735;52.060;1.248;2024-02-14T13:46:13;7;6;
63305;PMS5003;50735;52.060;1.248;2024-02-14T13:48:44;7;5;
63305;PMS5003;50735;52.060;1.248;2024-02-14T13:51:16;5;3;
63305;PMS5003;50735;52.060;1.248;2024-02-14T13:53:48;9;5;
63305;PMS5003;50735;52.060;1.248;2024-02-14T13:56:20;7;5;
63305;PMS5003;50735;52.060;1.248;2024-02-14T13:58:52;6;6;
63305;PMS5003;50735;52.060;1.248;2024-02-14T14:01:23;4;4;
63305;PMS5003;50735;52.060;1.248;2024-02-14T14:03:55;3;3;
63305;PMS5003;50735;52.060;1.248;2024-02-14T14:06:27;5;5;
63305;PMS5003;50735;52.060;1.248;2024-02-14T14:09:00;4;4;
63305;PMS5003;50735;52.060;1.248;2024-02-14T14:11:33;4;4;
63305;PMS5003;50735;52.060;1.248;2024-02-14T14:14:06;8;5;
63305;PMS5003;50735;52.060;1.248;2024-02-14T14:16:37;5;5;
63305;PMS5003;50735;52.060;1.248;2024-02-14T14:19:09;8;5;
63305;PMS5003;50735;52.060;1.248;2024-02-14T14:21:41;3;3;
63305;PMS5003;50735;52.060;1.248;2024-02-14T14:24:13;2;2;
63305;PMS5003;50735;52.060;1.248;2024-02-14T14:26:44;8;6;
63305;PMS5003;50735;52.060;1.248;2024-02-14T14:29:16;5;5;
63305;PMS5003;50735;52.060;1.248;2024-02-14T14:31:48;7;6;
63305;PMS5003;50735;52.060;1.248;2024-02-14T14:34:20;6;4;
63305;PMS5003;50735;52.060;1.248;2024-02-14T14:36:52;8;5;
63305;PMS5003;50735;52.060;1.248;2024-02-14T14:39:24;5;3;
63305;PMS5003;50735;52.060;1.248;2024-02-14T14:41:57;6;5;
63305;PMS5003;50735;52.060;1.248;2024-02-14T14:44:29;6;4;
63305;PMS5003;50735;52.060;1.248;2024-02-14T14:47:01;9;6;
63305;PMS5003;50735;52.060;1.248;2024-02-14T14:49:33;4;3;
63305;PMS5003;50735;52.060;1.248;2024-02-14T14:52:05;5;5;
63305;PMS5003;50735;52.060;1.248;2024-02-14T14:54:36;5;5;
63305;PMS5003;50735;52.060;1.248;2024-02-14T14:57:08;7;6;
63305;PMS5003;50735;52.060;1.248;2024-02-14T14:59:40;6;6;
63305;PMS5003;50735;52.060;1.248;2024-02-14T15:02:11;5;5;
63305;PMS5003;50735;52.060;1.248;2024-02-14T15:04:43;6;5;
63305;PMS5003;50735;52.060;1.248;2024-02-14T15:07:15;8;5;
63305;PMS5003;50735;52.060;1.248;2024-02-14T15:09:47;5;5;
63305;PMS5003;50735;52.060;1.248;2024-02-14T15:12:18;6;5;
63305;PMS5003;50735;52.060;1.248;2024-02-14T15:14:50;10;7;
63305;PMS5003;50735;52.060;1.248;2024-02-14T15:17:22;5;5;
63305;PMS5003;50735;52.060;1.248;2024-02-14T15:19:54;7;5;
63305;PMS5003;50735;52.060;1.248;2024-02-14T15:22:25;5;5;
63305;PMS5003;50735;52.060;1.248;2024-02-14T15:24:57;8;5;
63305;PMS5003;50735;52.060;1.248;2024-02-14T15:27:29;4;4;
63305;PMS5003;50735;52.060;1.248;2024-02-14T15:30:01;7;5;
63305;PMS5003;50735;52.060;1.248;2024-02-14T15:32:32;5;5;
63305;PMS5003;50735;52.060;1.248;2024-02-14T15:35:05;8;7;
63305;PMS5003;50735;52.060;1.248;2024-02-14T15:37:37;11;7;
63305;PMS5003;50735;52.060;1.248;2024-02-14T15:40:10;8;5;
63305;PMS5003;50735;52.060;1.248;2024-02-14T15:42:43;6;4;
63305;PMS5003;50735;52.060;1.248;2024-02-14T15:45:15;6;4;
63305;PMS5003;50735;52.060;1.248;2024-02-14T15:47:47;4;4;
63305;PMS5003;50735;52.060;1.248;2024-02-14T15:50:19;6;6;
63305;PMS5003;50735;52.060;1.248;2024-02-14T15:52:51;4;4;
63305;PMS5003;50735;52.060;1.248;2024-02-14T15:55:22;4;4;
63305;PMS5003;50735;52.060;1.248;2024-02-14T15:57:54;5;5;
63305;PMS5003;50735;52.060;1.248;2024-02-14T16:00:26;8;5;
63305;PMS5003;50735;52.060;1.248;2024-02-14T16:02:57;6;6;
63305;PMS5003;50735;52.060;1.248;2024-02-14T16:05:30;5;5;
63305;PMS5003;50735;52.060;1.248;2024-02-14T16:08:03;7;5;
63305;PMS5003;50735;52.060;1.248;2024-02-14T16:10:35;3;3;
63305;PMS5003;50735;52.060;1.248;2024-02-14T16:13:07;6;6;
63305;PMS5003;50735;52.060;1.248;2024-02-14T16:15:39;10;5;
63305;PMS5003;50735;52.060;1.248;2024-02-14T16:18:10;9;5;
63305;PMS5003;50735;52.060;1.248;2024-02-14T16:20:42;4;3;
63305;PMS5003;50735;52.060;1.248;2024-02-14T16:23:14;5;3;
63305;PMS5003;50735;52.060;1.248;2024-02-14T16:25:46;7;4;
63305;PMS5003;50735;52.060;1.248;2024-02-14T16:28:18;9;9;
63305;PMS5003;50735;52.060;1.248;2024-02-14T16:30:50;4;4;
63305;PMS5003;50735;52.060;1.248;2024-02-14T16:33:22;6;4;
63305;PMS5003;50735;52.060;1.248;2024-02-14T16:35:53;6;5;
63305;PMS5003;50735;52.060;1.248;2024-02-14T16:38:25;6;5;
63305;PMS5003;50735;52.060;1.248;2024-02-14T16:40:57;8;5;
63305;PMS5003;50735;52.060;1.248;2024-02-14T16:43:29;7;3;
63305;PMS5003;50735;52.060;1.248;2024-02-14T16:46:01;4;4;
63305;PMS5003;50735;52.060;1.248;2024-02-14T16:48:33;5;5;
63305;PMS5003;50735;52.060;1.248;2024-02-14T16:51:04;4;4;
63305;PMS5003;50735;52.060;1.248;2024-02-14T16:53:36;5;5;
63305;PMS5003;50735;52.060;1.248;2024-02-14T16:56:08;3;3;
63305;PMS5003;50735;52.060;1.248;2024-02-14T16:58:40;4;4;
63305;PMS5003;50735;52.060;1.248;2024-02-14T17:01:11;4;4;
63305;PMS5003;50735;52.060;1.248;2024-02-14T17:03:43;6;5;
63305;PMS5003;50735;52.060;1.248;2024-02-14T17:06:16;4;2;
63305;PMS5003;50735;52.060;1.248;2024-02-14T17:08:49;5;3;
63305;PMS5003;50735;52.060;1.248;2024-02-14T17:11:20;8;5;
63305;PMS5003;50735;52.060;1.248;2024-02-14T17:13:52;4;4;
63305;PMS5003;50735;52.060;1.248;2024-02-14T17:16:24;7;6;
63305;PMS5003;50735;52.060;1.248;2024-02-14T17:18:56;6;6;
63305;PMS5003;50735;52.060;1.248;2024-02-14T17:21:28;8;8;